createdAt,value
2023-03-26T00:01:27.477Z,97862.09
2023-03-26T00:03:55.292Z,97873.97
2023-03-26T00:06:27.243Z,97880.09
2023-03-26T00:08:55.847Z,97871.06
2023-03-26T00:11:24.214Z,97868.41
2023-03-26T00:13:53.713Z,97884.56
2023-03-26T00:16:20.973Z,97881.63
2023-03-26T00:18:49.107Z,97875.63
2023-03-26T00:21:18.103Z,97896.06
2023-03-26T00:23:45.560Z,97882.94
2023-03-26T00:26:13.009Z,97886.91
2023-03-26T00:28:41.865Z,97881.56
2023-03-26T00:31:12.288Z,97881.06
2023-03-26T00:33:40.897Z,97880.84
2023-03-26T00:36:11.194Z,97865.06
2023-03-26T00:38:41.748Z,97870.84
2023-03-26T00:41:17.646Z,97865.72
2023-03-26T00:43:53.334Z,97859.47
2023-03-26T00:46:20.628Z,97857.38
2023-03-26T00:48:50.844Z,97836.75
2023-03-26T00:51:19.347Z,97833.50
2023-03-26T00:53:48.347Z,97834.00
2023-03-26T00:56:15.808Z,97840.72
2023-03-26T00:58:43.125Z,97827.94
2023-03-26T01:01:16.641Z,97815.50
2023-03-26T01:03:57.095Z,97830.13
2023-03-26T01:06:36.760Z,97834.66
2023-03-26T01:09:37.194Z,97842.13
2023-03-26T01:12:07.499Z,97831.47
2023-03-26T01:14:34.735Z,97829.84
2023-03-26T01:17:04.225Z,97840.66
2023-03-26T01:19:44.882Z,97839.09
2023-03-26T01:22:18.296Z,97838.53
2023-03-26T01:24:56.978Z,97838.69
2023-03-26T01:27:47.434Z,97842.16
2023-03-26T01:30:28.469Z,97822.22
2023-03-26T01:33:26.515Z,97811.06
2023-03-26T01:36:08.469Z,97842.56
2023-03-26T01:38:53.598Z,97838.00
2023-03-26T01:41:48.308Z,97830.47
2023-03-26T01:44:35.154Z,97818.19
2023-03-26T01:47:02.291Z,97831.56
2023-03-26T01:49:32.321Z,97817.78
2023-03-26T01:51:59.454Z,97829.53
2023-03-26T01:54:34.005Z,97827.31
2023-03-26T01:57:22.838Z,97819.69
2023-03-26T02:00:15.296Z,97808.06
2023-03-26T02:03:04.017Z,97807.97
2023-03-26T02:05:35.952Z,97808.69
2023-03-26T02:08:16.756Z,97804.84
2023-03-26T02:10:46.218Z,97790.13
2023-03-26T02:13:13.865Z,97778.06
2023-03-26T02:15:41.548Z,97784.09
2023-03-26T02:18:11.086Z,97788.41
2023-03-26T02:20:38.100Z,97795.63
2023-03-26T02:23:05.862Z,97792.38
2023-03-26T02:25:35.401Z,97789.34
2023-03-26T02:28:02.895Z,97781.59
2023-03-26T02:30:30.124Z,97790.19
2023-03-26T02:33:02.504Z,97795.03
2023-03-26T02:35:46.310Z,97772.66
2023-03-26T02:38:14.719Z,97790.72
2023-03-26T02:40:42.686Z,97767.63
2023-03-26T02:43:09.936Z,97768.53
2023-03-26T02:45:37.536Z,97769.94
2023-03-26T02:48:08.164Z,97766.94
2023-03-26T02:50:55.625Z,97779.22
2023-03-26T02:53:44.201Z,97768.06
2023-03-26T02:56:34.317Z,97767.03
2023-03-26T02:59:15.113Z,97771.00
2023-03-26T03:01:45.170Z,97774.56
2023-03-26T03:04:18.141Z,97772.97
2023-03-26T03:06:46.802Z,97777.25
2023-03-26T03:09:50.807Z,97784.34
2023-03-26T03:12:41.658Z,97772.13
2023-03-26T03:15:09.672Z,97766.22
2023-03-26T03:17:36.736Z,97780.13
2023-03-26T03:20:07.127Z,97755.53
2023-03-26T03:22:36.269Z,97748.06
2023-03-26T03:25:14.476Z,97769.44
2023-03-26T03:27:42.971Z,97768.03
2023-03-26T03:30:16.367Z,97761.56
2023-03-26T03:32:46.421Z,97744.16
2023-03-26T03:35:21.873Z,97734.41
2023-03-26T03:37:54.552Z,97748.31
2023-03-26T03:40:25.371Z,97728.59
2023-03-26T03:42:53.485Z,97735.09
2023-03-26T03:45:29.930Z,97742.50
2023-03-26T03:48:23.475Z,97728.91
2023-03-26T03:50:54.090Z,97735.25
2023-03-26T03:53:26.461Z,97732.34
2023-03-26T03:55:57.055Z,97734.53
2023-03-26T03:58:34.884Z,97730.41
2023-03-26T04:01:11.341Z,97713.81
2023-03-26T04:03:58.815Z,97719.81
2023-03-26T04:09:34.765Z,97714.91
2023-03-26T04:12:17.534Z,97723.50
2023-03-26T04:15:33.038Z,97715.00
2023-03-26T04:18:43.421Z,97696.59
2023-03-26T04:35:04.245Z,97694.81
2023-03-26T05:26:17.457Z,97647.91
2023-03-26T05:28:46.446Z,97646.25
2023-03-26T05:31:31.301Z,97649.66
2023-03-26T05:34:04.574Z,97649.97
2023-03-26T05:45:52.748Z,97646.69
2023-03-26T05:48:44.982Z,97656.31
2023-03-26T05:51:20.405Z,97644.47
2023-03-26T05:53:57.408Z,97630.38
2023-03-26T05:56:45.145Z,97631.03
2023-03-26T05:59:35.103Z,97618.88
2023-03-26T06:02:22.325Z,97635.91
2023-03-26T06:05:12.876Z,97592.59
2023-03-26T06:08:08.779Z,97607.25
2023-03-26T06:11:08.618Z,97592.44
2023-03-26T06:14:01.152Z,97608.63
2023-03-26T06:16:44.582Z,97579.84
2023-03-26T06:23:02.209Z,97580.50
2023-03-26T06:25:49.857Z,97590.75
2023-03-26T06:28:37.429Z,97597.56
2023-03-26T06:31:39.925Z,97566.38
2023-03-26T06:34:38.979Z,97563.84
2023-03-26T06:37:08.984Z,97574.66
2023-03-26T06:39:40.862Z,97577.06
2023-03-26T06:42:20.171Z,97579.19
2023-03-26T06:45:05.682Z,97542.31
2023-03-26T06:47:36.843Z,97573.88
2023-03-26T06:50:51.802Z,97559.41
2023-03-26T06:53:57.497Z,97561.75
2023-03-26T06:57:05.856Z,97558.59
2023-03-26T06:59:57.667Z,97536.34
2023-03-26T07:02:50.723Z,97531.38
2023-03-26T07:05:43.909Z,97534.16
2023-03-26T07:08:31.071Z,97538.38
2023-03-26T07:11:21.353Z,97540.63
2023-03-26T07:14:19.463Z,97514.22
2023-03-26T07:16:54.717Z,97501.09
2023-03-26T07:19:34.873Z,97493.59
2023-03-26T07:22:02.416Z,97510.53
2023-03-26T07:24:48.462Z,97507.34
2023-03-26T07:28:11.685Z,97528.31
2023-03-26T07:31:07.614Z,97510.59
2023-03-26T07:34:36.255Z,97518.16
2023-03-26T07:37:54.910Z,97502.03
2023-03-26T07:40:31.752Z,97518.06
2023-03-26T07:43:47.201Z,97516.34
2023-03-26T07:46:39.692Z,97506.94
2023-03-26T07:49:36.729Z,97523.28
2023-03-26T07:52:34.481Z,97531.25
2023-03-26T07:55:48.196Z,97514.56
2023-03-26T08:03:01.458Z,97501.78
2023-03-26T08:05:54.568Z,97504.41
2023-03-26T08:08:48.614Z,97505.50
2023-03-26T08:11:55.006Z,97504.06
2023-03-26T08:17:58.743Z,97483.56
2023-03-26T08:20:41.694Z,97478.50
2023-03-26T08:23:33.489Z,97472.44
2023-03-26T08:26:22.958Z,97484.13
2023-03-26T08:28:58.072Z,97465.28
2023-03-26T08:31:33.656Z,97472.56
2023-03-26T08:34:01.559Z,97444.56
2023-03-26T08:36:51.471Z,97451.22
2023-03-26T08:39:22.465Z,97468.47
2023-03-26T08:42:21.277Z,97464.59
2023-03-26T08:45:21.480Z,97463.28
2023-03-26T08:48:42.961Z,97456.03
2023-03-26T08:51:33.335Z,97454.69
2023-03-26T08:54:24.403Z,97454.69
2023-03-26T08:57:13.480Z,97458.13
2023-03-26T09:00:01.276Z,97454.38
2023-03-26T09:03:02.282Z,97437.91
2023-03-26T09:05:46.324Z,97452.50
2023-03-26T09:08:30.120Z,97457.34
2023-03-26T09:11:35.718Z,97451.50
2023-03-26T09:14:30.633Z,97458.47
2023-03-26T09:17:16.331Z,97452.03
2023-03-26T09:20:05.021Z,97449.31
2023-03-26T09:22:59.811Z,97444.53
2023-03-26T09:25:40.015Z,97437.56
2023-03-26T09:28:22.227Z,97425.53
2023-03-26T09:31:27.235Z,97422.16
2023-03-26T09:34:32.549Z,97394.78
2023-03-26T09:37:20.141Z,97411.28
2023-03-26T09:40:09.106Z,97412.31
2023-03-26T09:42:53.319Z,97398.03
2023-03-26T09:45:29.547Z,97415.75
2023-03-26T09:48:27.176Z,97418.44
2023-03-26T09:51:09.175Z,97420.56
2023-03-26T09:53:58.076Z,97413.34
2023-03-26T09:56:43.650Z,97414.16
2023-03-26T09:59:32.331Z,97409.31
2023-03-26T10:02:45.933Z,97406.63
2023-03-26T10:05:29.940Z,97399.91
2023-03-26T10:08:15.199Z,97403.06
2023-03-26T10:11:08.239Z,97398.88
2023-03-26T10:14:03.813Z,97399.72
2023-03-26T10:16:33.856Z,97400.03
2023-03-26T10:19:32.667Z,97397.06
2023-03-26T10:22:35.362Z,97398.66
2023-03-26T10:36:08.525Z,97399.28
2023-03-26T10:39:11.032Z,97393.38
2023-03-26T10:42:31.533Z,97385.63
2023-03-26T10:45:30.781Z,97387.78
2023-03-26T10:51:55.512Z,97377.91
2023-03-26T10:54:33.127Z,97393.50
2023-03-26T10:57:01.367Z,97387.59
2023-03-26T10:59:42.244Z,97372.28
2023-03-26T11:02:41.503Z,97369.28
2023-03-26T11:05:41.059Z,97385.44
2023-03-26T11:08:51.028Z,97382.22
2023-03-26T11:11:31.210Z,97377.88
2023-03-26T11:14:04.900Z,97379.53
2023-03-26T11:17:39.702Z,97384.41
2023-03-26T11:27:15.363Z,97389.19
2023-03-26T11:30:39.022Z,97364.94
2023-03-26T11:33:11.452Z,97381.34
2023-03-26T11:35:41.846Z,97368.44
2023-03-26T11:38:53.777Z,97376.75
2023-03-26T11:59:06.701Z,97373.56
2023-03-26T12:37:38.851Z,97322.47
2023-03-26T12:40:44.766Z,97346.09
2023-03-26T12:44:52.815Z,97328.94
2023-03-26T13:08:21.624Z,97339.66
2023-03-26T13:14:11.469Z,97349.25
2023-03-26T13:39:22.681Z,97345.31
2023-03-26T13:43:03.069Z,97319.16
2023-03-26T13:50:13.758Z,97317.28
2023-03-26T13:53:06.025Z,97299.78
2023-03-26T13:56:20.034Z,97303.25
2023-03-26T13:59:18.644Z,97328.03
2023-03-26T14:01:56.829Z,97351.28
2023-03-26T14:04:44.830Z,97329.06
2023-03-26T14:07:53.058Z,97317.22
2023-03-26T14:14:03.885Z,97336.50
2023-03-26T14:16:59.915Z,97353.31
2023-03-26T14:20:13.798Z,97343.69
2023-03-26T14:22:49.319Z,97340.72
2023-03-26T14:25:59.899Z,97337.25
2023-03-26T14:28:52.032Z,97346.88
2023-03-26T14:31:29.483Z,97336.13
2023-03-26T14:37:30.350Z,97346.56
2023-03-26T14:40:21.231Z,97335.00
2023-03-26T14:46:29.148Z,97338.47
2023-03-26T14:49:21.966Z,97343.03
2023-03-26T14:52:00.002Z,97335.28
2023-03-26T14:54:29.994Z,97351.38
2023-03-26T15:00:52.688Z,97332.66
2023-03-26T15:04:03.153Z,97329.97
2023-03-26T15:07:10.860Z,97327.78
2023-03-26T15:19:14.689Z,97329.34
2023-03-26T15:22:03.241Z,97316.78
2023-03-26T15:25:21.557Z,97322.38
2023-03-26T15:28:37.139Z,97298.41
2023-03-26T15:31:13.459Z,97296.50
2023-03-26T15:37:54.448Z,97330.28
2023-03-26T15:45:19.055Z,97325.50
2023-03-26T15:48:13.325Z,97322.28
2023-03-26T15:51:00.943Z,97318.75
2023-03-26T16:00:59.372Z,97321.13
2023-03-26T16:03:49.872Z,97330.19
2023-03-26T16:06:44.726Z,97329.72
2023-03-26T16:09:25.590Z,97327.56
2023-03-26T16:12:44.099Z,97312.72
2023-03-26T16:18:15.947Z,97331.31
2023-03-26T16:24:09.240Z,97307.31
2023-03-26T16:31:51.046Z,97332.88
2023-03-26T16:38:27.626Z,97324.22
2023-03-26T16:55:29.782Z,97332.88
2023-03-26T16:58:09.590Z,97343.31
2023-03-26T17:00:56.100Z,97341.22
2023-03-26T17:04:00.446Z,97314.47
2023-03-26T17:07:10.818Z,97343.03
2023-03-26T17:10:14.837Z,97339.22
2023-03-26T17:12:54.218Z,97338.59
2023-03-26T17:15:59.112Z,97342.19
2023-03-26T17:19:13.570Z,97337.53
2023-03-26T17:22:29.438Z,97342.19
2023-03-26T17:25:07.061Z,97344.06
2023-03-26T17:28:48.787Z,97324.09
2023-03-26T17:31:47.441Z,97336.72
2023-03-26T17:34:37.760Z,97347.53
2023-03-26T17:37:36.872Z,97338.38
2023-03-26T17:41:14.322Z,97342.94
2023-03-26T17:43:53.020Z,97298.56
2023-03-26T17:46:40.709Z,97331.72
2023-03-26T17:55:33.263Z,97328.09
2023-03-26T17:58:08.780Z,97311.06
2023-03-26T18:04:16.144Z,97302.69
2023-03-26T18:06:54.642Z,97333.66
2023-03-26T18:10:01.829Z,97319.66
2023-03-26T18:15:39.477Z,97321.75
2023-03-26T18:18:20.602Z,97334.69
2023-03-26T18:20:55.902Z,97325.50
2023-03-26T18:23:55.205Z,97320.22
2023-03-26T18:26:43.509Z,97315.78
2023-03-26T18:29:34.788Z,97324.66
2023-03-26T18:32:23.801Z,97322.28
2023-03-26T18:35:34.460Z,97324.66
2023-03-26T18:38:09.145Z,97309.84
2023-03-26T18:40:44.282Z,97320.91
2023-03-26T18:43:32.282Z,97312.31
2023-03-26T18:46:42.453Z,97317.66
2023-03-26T18:49:18.696Z,97311.22
2023-03-26T18:51:55.978Z,97301.75
2023-03-26T18:54:34.410Z,97317.94
2023-03-26T18:57:15.741Z,97324.09
2023-03-26T18:59:45.765Z,97310.88
2023-03-26T19:02:14.032Z,97329.09
2023-03-26T19:04:46.146Z,97309.53
2023-03-26T19:07:27.121Z,97313.25
2023-03-26T19:09:57.493Z,97325.69
2023-03-26T19:12:31.046Z,97290.56
2023-03-26T19:15:18.856Z,97314.63
2023-03-26T19:17:57.610Z,97302.06
2023-03-26T19:20:28.411Z,97319.91
2023-03-26T19:23:05.308Z,97296.50
2023-03-26T19:25:39.361Z,97302.13
2023-03-26T19:28:21.404Z,97310.03
2023-03-26T19:30:53.929Z,97324.19
2023-03-26T19:33:22.877Z,97292.06
2023-03-26T19:36:01.755Z,97287.34
2023-03-26T19:38:38.976Z,97306.03
2023-03-26T19:41:06.200Z,97309.03
2023-03-26T19:43:36.476Z,97316.56
2023-03-26T19:46:03.711Z,97282.31
2023-03-26T19:48:46.247Z,97297.28
2023-03-26T19:51:26.193Z,97314.72
2023-03-26T19:53:56.152Z,97295.19
2023-03-26T19:56:25.689Z,97295.75
2023-03-26T19:58:53.624Z,97307.53
2023-03-26T20:01:26.872Z,97311.66
2023-03-26T20:04:02.611Z,97333.59
2023-03-26T20:06:42.352Z,97320.25
2023-03-26T20:09:16.440Z,97307.25
2023-03-26T20:11:43.801Z,97320.41
2023-03-26T20:14:17.785Z,97330.84
2023-03-26T20:16:45.999Z,97344.19
2023-03-26T20:19:15.260Z,97333.78
2023-03-26T20:21:42.957Z,97334.44
2023-03-26T20:24:15.900Z,97312.50
2023-03-26T20:26:46.882Z,97337.47
2023-03-26T20:29:15.184Z,97299.97
2023-03-26T20:31:45.268Z,97341.19
2023-03-26T20:34:20.043Z,97354.22
2023-03-26T20:36:47.155Z,97341.50
2023-03-26T20:39:15.189Z,97333.22
2023-03-26T20:44:38.121Z,97366.94
2023-03-26T20:50:06.057Z,97340.97
2023-03-26T20:52:37.162Z,97350.31
2023-03-26T20:55:16.114Z,97348.91
2023-03-26T20:57:48.762Z,97370.56
2023-03-26T21:00:23.607Z,97369.44
2023-03-26T21:02:53.497Z,97365.84
2023-03-26T21:05:25.889Z,97356.50
2023-03-26T21:07:59.045Z,97370.16
2023-03-26T21:10:31.798Z,97339.47
2023-03-26T21:13:04.874Z,97363.56
2023-03-26T21:15:37.926Z,97369.59
2023-03-26T21:18:05.741Z,97364.16
2023-03-26T21:20:34.847Z,97358.25
2023-03-26T21:23:11.642Z,97372.34
2023-03-26T21:25:44.322Z,97377.31
2023-03-26T21:28:32.242Z,97378.38
2023-03-26T21:31:14.576Z,97363.81
2023-03-26T21:33:42.920Z,97376.53
2023-03-26T21:36:11.257Z,97382.34
2023-03-26T21:38:38.941Z,97389.06
2023-03-26T21:41:09.898Z,97373.66
2023-03-26T21:43:40.445Z,97369.03
2023-03-26T21:46:08.343Z,97372.59
2023-03-26T21:48:40.912Z,97383.84
2023-03-26T21:51:15.367Z,97384.09
2023-03-26T21:53:45.527Z,97403.31
2023-03-26T21:56:38.262Z,97397.28
2023-03-26T21:59:13.350Z,97405.75
2023-03-26T22:01:49.519Z,97406.47
2023-03-26T22:04:41.682Z,97406.63
2023-03-26T22:07:17.018Z,97405.34
2023-03-26T22:09:45.157Z,97398.41
2023-03-26T22:12:12.719Z,97401.88
2023-03-26T22:14:39.693Z,97411.50
2023-03-26T22:17:06.957Z,97410.69
2023-03-26T22:19:34.770Z,97404.28
2023-03-26T22:22:05.448Z,97404.66
2023-03-26T22:24:32.984Z,97398.63
2023-03-26T22:27:00.091Z,97412.66
2023-03-26T22:29:28.630Z,97409.41
2023-03-26T22:31:59.580Z,97402.13
2023-03-26T22:34:27.706Z,97407.44
2023-03-26T22:36:57.662Z,97406.22
2023-03-26T22:39:25.112Z,97413.13
2023-03-26T22:41:52.253Z,97406.31
2023-03-26T22:44:20.493Z,97413.69
2023-03-26T22:46:51.402Z,97396.00
2023-03-26T22:49:19.010Z,97419.25
2023-03-26T22:51:46.107Z,97424.25
2023-03-26T22:54:13.365Z,97416.03
2023-03-26T22:56:41.749Z,97412.78
2023-03-26T22:59:08.781Z,97419.06
2023-03-26T23:01:36.430Z,97418.47
2023-03-26T23:04:03.699Z,97417.41
2023-03-26T23:06:31.772Z,97407.81
2023-03-26T23:08:59.082Z,97433.63
2023-03-26T23:11:26.761Z,97416.28
2023-03-26T23:13:53.709Z,97427.63
2023-03-26T23:16:25.827Z,97409.00
2023-03-26T23:18:55.871Z,97426.00
2023-03-26T23:21:23.905Z,97428.56
2023-03-26T23:23:55.546Z,97434.00
2023-03-26T23:26:23.906Z,97433.41
2023-03-26T23:28:51.316Z,97429.34
2023-03-26T23:31:18.375Z,97431.09
2023-03-26T23:33:48.140Z,97427.53
2023-03-26T23:36:19.055Z,97424.88
2023-03-26T23:38:52.297Z,97418.38
2023-03-26T23:41:23.496Z,97432.13
2023-03-26T23:43:54.295Z,97428.56
2023-03-26T23:46:34.837Z,97422.91
2023-03-26T23:49:03.627Z,97417.94
2023-03-26T23:51:32.004Z,97414.78
2023-03-26T23:53:59.965Z,97415.72
2023-03-26T23:56:30.297Z,97431.38
2023-03-26T23:58:58.432Z,97413.88
